WetterOnline ( https://www.wetteronline.de )

Wetter aktuell Ostseebad Binz

Aktuelles Wetter: Putbus/Rügen (41m)

6-stündlich | Neueste Meldungen
Ortszeit Temperatur Wetter
Sa, 22.02. 13:00 7.2° C bedeckt
Sa, 22.02. 7:00 7.1° C bedeckt
Sa, 22.02. 1:00 5.8° C bedeckt
Fr, 21.02. 19:00 6.3° C bedeckt
Fr, 21.02. 13:00 7.3° C leicht bewölkt
Fr, 21.02. 7:00 4.3° C leicht bewölkt
Fr, 21.02. 1:00 5.7° C leichter Regen
Do, 20.02. 19:00 5.6° C bedeckt
Ortszeit Temperatur Wetter
Sa, 22.02. 16:30 6.6° C Sprühregen
Sa, 22.02. 16:20 6.6° C Sprühregen
Sa, 22.02. 16:10 6.7° C leichter Regen
Sa, 22.02. 16:00 8.7° C leichter Regen
Sa, 22.02. 15:50 8.7° C leichter Regen
Sa, 22.02. 15:40 8.6° C leichter Regen
Sa, 22.02. 15:30 8.5° C bedeckt
Sa, 22.02. 15:00 8.3° C Sprühregen
Ortszeit Relative Feuchte Sichtweite
Sa, 22.02. 13:00 78% 40 km
Sa, 22.02. 7:00 74% 30 km
Sa, 22.02. 1:00 84% 22 km
Fr, 21.02. 19:00 71% 35 km
Fr, 21.02. 13:00 71% 25 km
Fr, 21.02. 7:00 82% 23 km
Fr, 21.02. 1:00 93% 11 km
Do, 20.02. 19:00 89% 30 km
Ortszeit Relative Feuchte Sichtweite
Sa, 22.02. 16:30 90% 14 km
Sa, 22.02. 16:20 90% -
Sa, 22.02. 16:10 83% -
Sa, 22.02. 16:00 76% 35 km
Sa, 22.02. 15:50 76% -
Sa, 22.02. 15:40 78% -
Sa, 22.02. 15:30 78% 65 km
Sa, 22.02. 15:00 79% 18 km
Ortszeit Niederschlagsmenge Niederschlagsart
Sa, 22.02. 13:00 0.1 l/m2 in 6 Std. Regen
Sa, 22.02. 7:00 0.1 l/m2 in 12 Std. Sprühregen
Sa, 22.02. 1:00 0.1 l/m2 in 6 Std. Regen
Fr, 21.02. 19:00 0.1 l/m2 in 12 Std. Regen
Fr, 21.02. 13:00 0.0 l/m2 in 6 Std. -
Fr, 21.02. 7:00 4 l/m2 in 12 Std. Regen
Fr, 21.02. 1:00 1 l/m2 in 6 Std. Regen
Do, 20.02. 19:00 0.2 l/m2 in 12 Std. Regen
Ortszeit Niederschlagsmenge Niederschlagsart
Sa, 22.02. 16:30 0.6 l/m2 in 1 Std. -
Sa, 22.02. 16:20 keine Meldung -
Sa, 22.02. 16:10 keine Meldung -
Sa, 22.02. 16:00 0.1 l/m2 in 1 Std. Regen
Sa, 22.02. 15:50 keine Meldung -
Sa, 22.02. 15:40 keine Meldung -
Sa, 22.02. 15:30 0.1 l/m2 in 1 Std. Schnee
Sa, 22.02. 15:00 0.1 l/m2 in 1 Std. Sprühregen
Ortszeit Stärke Spitze Richtung
km/h Bft. km/h Grad Sektor
Sa, 22.02. 13:00 29 5 61 230° SW
Sa, 22.02. 7:00 29 5 54 220° SW
Sa, 22.02. 1:00 18 3 47 220° SW
Fr, 21.02. 19:00 18 3 61 220° SW
Fr, 21.02. 13:00 31 5 57 270° W
Fr, 21.02. 7:00 26 4 72 270° W
Fr, 21.02. 1:00 22 4 40 200° S
Do, 20.02. 19:00 15 3 37 190° S
Ortszeit Stärke Spitze Richtung
km/h Bft. km/h Grad Sektor
Sa, 22.02. 16:30 36 5 83 260° W
Sa, 22.02. 16:20 36 5 - 260° W
Sa, 22.02. 16:10 47 6 - 280° W
Sa, 22.02. 16:00 39 6 61 250° W
Sa, 22.02. 15:50 39 6 - 250° W
Sa, 22.02. 15:40 35 5 - 250° W
Sa, 22.02. 15:30 35 5 61 240° SW
Sa, 22.02. 15:00 36 5 68 240° SW
Ortszeit Untergrenze Bedeckung Gattung
total tief tief mittel hoch
Sa, 22.02. 13:00 510 m 8/8 8/8 - - -
Sa, 22.02. 7:00 630 m 8/8 8/8 - - -
Sa, 22.02. 1:00 390 m 8/8 8/8 - - -
Fr, 21.02. 19:00 810 m 8/8 8/8 - - -
Fr, 21.02. 13:00 630 m 4/8 4/8 - - -
Fr, 21.02. 7:00 690 m 4/8 4/8 - - -
Fr, 21.02. 1:00 450 m 8/8 7/8 - - -
Do, 20.02. 19:00 300 m 8/8 8/8 - - -
Ortszeit Bedeckungsgrad in Achtel und Wolkenuntergrenze
Sa, 22.02. 16:30 4(540m) 7(960m) 8(1320m)
Sa, 22.02. 16:20 4(540m) 7(960m) 8(1320m)
Sa, 22.02. 16:10 4(630m) 7(930m) 8(1320m)
Sa, 22.02. 16:00 7(690m) 8(1020m) 8(1320m)
Sa, 22.02. 15:50 7(690m) 8(1020m)
Sa, 22.02. 15:40 7(660m) 7(810m)
Sa, 22.02. 15:30 6(630m) 7(780m) 8(2100m)
Sa, 22.02. 15:00 8(660m) 7(1020m) 8(2100m)
Ortszeit Luftdruck NN (hPa) Tendenz (hPa in 3 Std.)
Sa, 22.02. 13:00 1005 - 2,9
Sa, 22.02. 7:00 1010 - 3,1
Sa, 22.02. 1:00 1016 - 1,9
Fr, 21.02. 19:00 1019 + 1,0
Fr, 21.02. 13:00 1017 + 2,3
Fr, 21.02. 7:00 1010 + 5,2
Fr, 21.02. 1:00 1002 - 2,8
Do, 20.02. 19:00 1009 - 2,4
Ortszeit Luftdruck NN (hPa) Tendenz (hPa in 3 Std.)
Sa, 22.02. 16:30 1004 - 0,1
Sa, 22.02. 16:20 1004 keine Meldung
Sa, 22.02. 16:10 1004 keine Meldung
Sa, 22.02. 16:00 1004 - 0,5
Sa, 22.02. 15:50 1004 keine Meldung
Sa, 22.02. 15:40 1004 keine Meldung
Sa, 22.02. 15:30 1004 - 1,1
Sa, 22.02. 15:00 1004 - 1,8
Ortszeit Schneehöhe (cm)
Sa, 22.02. 13:00 0
Sa, 22.02. 7:00 0
Sa, 22.02. 1:00 0
Fr, 21.02. 19:00 0
Fr, 21.02. 13:00 0
Fr, 21.02. 7:00 0
Fr, 21.02. 1:00 0
Do, 20.02. 19:00 0
Ortszeit Schneehöhe (cm)
Sa, 22.02. 16:30 0
Sa, 22.02. 16:20 0
Sa, 22.02. 16:10 0
Sa, 22.02. 16:00 0
Sa, 22.02. 15:50 0
Sa, 22.02. 15:40 0
Sa, 22.02. 15:30 0
Sa, 22.02. 15:00 0
Link zu dieser Seite / Seite empfehlen

Das Wetter in ...